Time;durP1;ratioP1;P1;durP2;ratioP2;P2;SDS_P1;SDS_P2;PMS_P1;PMS_P2;Temp;Humidity;BMP_temperature;BMP_pressure;BME280_temperature;BME280_humidity;BME280_pressure;Samples;Min_cycle;Max_cycle;Signal;HPM_P1;HPM_P2
2021/12/25 00:01:14;;;;;;;17.40;7.70;;;8.90;99.90;;;8.95;96.29;99827.34;5123023;28;20070;-68
2021/12/25 00:03:46;;;;;;;16.88;7.43;;;8.90;99.90;;;8.96;96.46;99816.97;5189695;23;21304;-74
2021/12/25 00:06:20;;;;;;;19.67;8.05;;;8.90;99.90;;;8.98;96.57;99828.28;5187183;28;20052;-77
2021/12/25 00:08:52;;;;;;;17.45;7.20;;;8.90;99.90;;;9.00;96.36;99833.53;5189542;28;20096;-77
2021/12/25 00:11:24;;;;;;;18.08;7.13;;;8.90;99.90;;;8.98;96.57;99817.88;5193610;28;20104;-77
2021/12/25 00:13:56;;;;;;;17.58;7.82;;;8.90;99.90;;;8.99;96.23;99831.75;5193027;28;20077;-77
2021/12/25 00:16:28;;;;;;;18.45;7.55;;;8.90;99.90;;;8.97;96.24;99825.66;5193099;28;20041;-78
2021/12/25 00:19:00;;;;;;;15.70;6.72;;;8.90;99.90;;;8.95;96.30;99823.03;5192960;28;20560;-77
2021/12/25 00:21:34;;;;;;;16.02;7.03;;;8.90;99.90;;;8.95;96.57;99822.16;5191960;28;20056;-77
2021/12/25 00:24:07;;;;;;;17.95;7.38;;;8.90;99.90;;;8.95;96.60;99823.03;5192534;28;20172;-77
2021/12/25 00:26:50;;;;;;;16.00;7.25;;;8.90;99.90;;;8.95;96.62;99825.63;5192081;28;20076;-77
2021/12/25 00:29:51;;;;;;;14.77;7.22;;;8.90;99.90;;;8.94;96.69;99810.88;5192037;28;20068;-78
2021/12/25 00:35:12;;;;;;;17.17;7.57;;;8.90;99.90;;;8.90;96.67;99813.34;5180684;28;20050;-77
2021/12/25 00:37:45;;;;;;;17.48;6.95;;;8.80;99.90;;;8.91;96.89;99820.28;5191549;28;20050;-78
2021/12/25 00:40:18;;;;;;;17.73;7.53;;;8.90;99.90;;;8.90;97.03;99821.13;5191993;28;20383;-79
2021/12/25 00:42:51;;;;;;;19.13;7.43;;;8.90;99.90;;;8.90;97.19;99822.00;5192261;28;20117;-78
2021/12/25 00:45:23;;;;;;;14.60;6.95;;;8.90;99.90;;;8.89;97.16;99820.25;5191548;28;20056;-77
2021/12/25 00:47:55;;;;;;;15.70;7.43;;;8.80;99.90;;;8.88;97.11;99823.72;5192344;28;20053;-77
2021/12/25 00:50:27;;;;;;;17.38;7.57;;;8.80;99.90;;;8.85;97.13;99818.41;5192530;28;20053;-78
2021/12/25 00:53:00;;;;;;;15.68;7.53;;;8.80;99.90;;;8.84;97.12;99816.66;5192419;28;20050;-78
2021/12/25 00:55:33;;;;;;;17.25;7.78;;;8.80;99.90;;;8.81;97.20;99820.91;5191455;28;20384;-76
2021/12/25 00:58:05;;;;;;;19.48;8.68;;;8.80;99.90;;;8.79;97.65;99813.06;5191116;28;20467;-77
2021/12/25 01:00:37;;;;;;;19.58;8.15;;;8.80;99.90;;;8.80;97.65;99825.22;5191782;28;20132;-76
2021/12/25 01:03:09;;;;;;;19.02;8.05;;;8.80;99.90;;;8.80;98.15;99819.13;5191104;28;20050;-77
2021/12/25 01:05:42;;;;;;;17.35;7.50;;;8.80;99.90;;;8.80;97.96;99821.72;5190516;28;20046;-77
2021/12/25 01:08:15;;;;;;;20.65;8.07;;;8.70;99.90;;;8.79;98.01;99827.75;5189491;28;20141;-78
2021/12/25 01:10:48;;;;;;;17.15;8.15;;;8.80;99.90;;;8.79;98.11;99820.84;5190821;28;20053;-78
2021/12/25 01:13:25;;;;;;;22.33;8.63;;;8.80;99.90;;;8.78;98.35;99820.81;5190686;28;20110;-77
2021/12/25 01:16:12;;;;;;;21.75;8.57;;;8.70;99.90;;;8.77;98.54;99809.53;5190717;28;20088;-78
2021/12/25 01:19:29;;;;;;;20.25;9.23;;;8.80;99.90;;;8.76;98.67;99813.00;5190912;28;20046;-78
2021/12/25 01:25:17;;;;;;;22.90;8.90;;;8.70;99.90;;;8.76;99.21;99802.59;5191697;28;20574;-78
2021/12/25 01:28:29;;;;;;;20.65;8.40;;;8.80;99.90;;;8.74;99.41;99793.88;5192044;28;20046;-78
2021/12/25 01:31:05;;;;;;;18.83;8.48;;;8.80;99.90;;;8.72;99.41;99800.75;5191574;28;20097;-78
2021/12/25 01:34:00;;;;;;;19.00;8.70;;;8.80;99.90;;;8.70;99.84;99794.63;5191789;28;20054;-77
2021/12/25 01:39:27;;;;;;;26.00;8.98;;;8.70;99.90;;;8.65;100.00;99801.41;5190779;28;20049;-77
2021/12/25 01:47:44;;;;;;;21.35;8.43;;;8.70;99.90;;;8.66;100.00;99800.56;5191726;28;20454;-77
2021/12/25 01:47:52;;;;;;;18.80;7.75;;;8.70;99.90;;;8.68;100.00;99793.72;5191932;28;20414;-78
2021/12/25 01:50:28;;;;;;;20.08;7.95;;;8.70;99.90;;;8.68;100.00;99804.13;5191871;28;20098;-78
2021/12/25 01:53:00;;;;;;;18.15;7.63;;;8.70;99.90;;;8.67;100.00;99799.72;5191880;28;20522;-78
2021/12/25 01:55:33;;;;;;;24.80;8.63;;;8.70;99.90;;;8.67;100.00;99802.34;5191440;28;20212;-78
2021/12/25 01:58:07;;;;;;;19.25;8.20;;;8.70;99.90;;;8.67;100.00;99803.25;5191557;28;20042;-78
2021/12/25 02:00:44;;;;;;;19.15;7.80;;;8.70;99.90;;;8.65;100.00;99804.03;5190829;28;20142;-77
2021/12/25 02:03:21;;;;;;;16.58;7.60;;;8.70;99.90;;;8.63;100.00;99806.59;5191247;28;20478;-78
2021/12/25 02:05:56;;;;;;;20.08;7.72;;;8.70;99.90;;;8.63;100.00;99810.91;5190902;28;20536;-78
2021/12/25 02:08:29;;;;;;;19.65;7.65;;;8.70;99.90;;;8.63;100.00;99796.19;5190790;28;20049;-77
2021/12/25 02:11:01;;;;;;;20.85;8.20;;;8.60;99.90;;;8.63;100.00;99801.38;5190427;28;20050;-78
2021/12/25 02:13:34;;;;;;;20.50;8.05;;;8.70;99.90;;;8.63;100.00;99800.50;5190936;28;20109;-78
2021/12/25 02:16:12;;;;;;;19.90;7.93;;;8.70;99.90;;;8.62;100.00;99798.75;5190331;28;20052;-77
2021/12/25 02:18:59;;;;;;;20.45;7.63;;;8.60;99.90;;;8.61;100.00;99797.00;5189928;28;20061;-77
2021/12/25 02:21:36;;;;;;;19.00;7.35;;;8.60;99.90;;;8.58;100.00;99792.59;5190765;28;20077;-77
2021/12/25 02:24:12;;;;;;;16.48;7.32;;;8.60;99.90;;;8.58;100.00;99794.31;5190350;28;20108;-78
2021/12/25 02:26:46;;;;;;;16.25;6.35;;;8.60;99.90;;;8.57;100.00;99784.75;5189609;28;20058;-78
2021/12/25 02:29:18;;;;;;;17.13;5.97;;;8.60;99.90;;;8.55;100.00;99795.13;5189601;28;20132;-77
2021/12/25 02:31:50;;;;;;;14.35;6.70;;;8.50;99.90;;;8.56;100.00;99798.59;5190025;28;20398;-77
2021/12/25 02:34:22;;;;;;;21.35;6.93;;;8.50;99.90;;;8.53;100.00;99798.50;5189827;28;20483;-78
2021/12/25 02:36:55;;;;;;;17.90;6.20;;;8.60;99.90;;;8.49;100.00;99792.34;5190577;28;20049;-78
2021/12/25 02:39:27;;;;;;;16.08;6.07;;;8.50;99.90;;;8.47;100.00;99798.31;5191026;28;20277;-78
2021/12/25 02:41:59;;;;;;;12.40;5.30;;;8.50;99.90;;;8.45;100.00;99792.22;5191082;28;20137;-78
2021/12/25 02:44:32;;;;;;;14.57;5.10;;;8.50;99.90;;;8.45;100.00;99794.81;5191326;28;20060;-78
2021/12/25 02:47:09;;;;;;;13.65;5.78;;;8.50;99.90;;;8.40;100.00;99787.75;5190954;28;20042;-78
2021/12/25 02:49:41;;;;;;;12.73;5.55;;;8.50;99.90;;;8.39;100.00;99787.72;5190725;28;20062;-77
2021/12/25 02:52:15;;;;;;;12.52;5.40;;;8.50;99.90;;;8.30;100.00;99775.34;5191155;28;20052;-78
2021/12/25 02:54:47;;;;;;;11.18;3.80;;;8.50;99.90;;;8.32;100.00;99786.66;5191205;28;20045;-77
2021/12/25 02:57:19;;;;;;;10.32;4.20;;;8.40;99.90;;;8.24;100.00;99780.38;5190834;28;20117;-79
2021/12/25 02:59:51;;;;;;;11.15;4.55;;;8.40;99.90;;;8.27;100.00;99780.44;5191777;28;20049;-77
2021/12/25 03:02:23;;;;;;;12.30;3.72;;;8.40;99.90;;;8.24;100.00;99780.38;5191387;28;20084;-78
2021/12/25 03:04:55;;;;;;;10.65;4.03;;;8.30;99.90;;;8.18;100.00;99787.09;5190741;28;20142;-78
2021/12/25 03:07:29;;;;;;;9.98;3.90;;;8.30;99.90;;;8.17;100.00;99786.22;5193327;28;20088;-78
2021/12/25 03:10:01;;;;;;;11.45;4.22;;;8.30;99.90;;;8.15;100.00;99783.59;5194394;28;20057;-78
2021/12/25 03:12:37;;;;;;;13.05;4.15;;;8.30;99.90;;;8.11;100.00;99784.34;5194900;28;20073;-78
2021/12/25 03:15:15;;;;;;;11.02;4.43;;;8.20;99.90;;;8.09;100.00;99791.22;5194602;28;20056;-78
2021/12/25 03:17:47;;;;;;;9.93;3.80;;;8.20;99.90;;;8.06;100.00;99790.22;5194909;28;20049;-78
2021/12/25 03:20:19;;;;;;;8.48;4.00;;;8.20;99.90;;;8.04;100.00;99786.72;5195101;28;20073;-78
2021/12/25 03:22:53;;;;;;;12.23;3.65;;;8.20;99.90;;;8.06;100.00;99790.22;5194766;28;20054;-78
2021/12/25 03:25:25;;;;;;;9.57;3.65;;;8.20;99.90;;;8.01;100.00;99781.41;5193911;28;20069;-78
2021/12/25 03:27:58;;;;;;;8.65;3.83;;;8.20;99.90;;;8.05;100.00;99785.88;5193902;28;20400;-77
2021/12/25 03:30:36;;;;;;;9.68;3.53;;;8.20;99.90;;;8.08;100.00;99793.72;5193933;28;20050;-77
2021/12/25 03:33:11;;;;;;;8.02;3.13;;;8.20;99.90;;;8.10;100.00;99785.19;5193307;28;20110;-78
2021/12/25 03:35:43;;;;;;;9.25;4.25;;;8.20;99.90;;;8.10;100.00;99786.91;5193479;28;20132;-77
2021/12/25 03:38:19;;;;;;;7.40;3.00;;;8.20;99.90;;;8.11;100.00;99793.84;5193148;28;20060;-78
2021/12/25 03:40:53;;;;;;;8.63;3.40;;;8.20;99.90;;;8.12;100.00;99790.41;5193435;28;20108;-78
2021/12/25 03:43:25;;;;;;;8.50;3.67;;;8.20;99.90;;;8.10;100.00;99787.78;5192583;28;20506;-78
2021/12/25 03:45:57;;;;;;;8.07;3.28;;;8.20;99.90;;;8.12;100.00;99787.81;5193028;28;20324;-78
2021/12/25 03:48:46;;;;;;;7.38;3.25;;;8.20;99.90;;;8.13;100.00;99793.03;5192538;28;20369;-77
2021/12/25 03:59:58;;;;;;;7.50;3.17;;;8.10;99.90;;;8.12;100.00;99795.59;5193416;28;20176;-77
2021/12/25 04:02:37;;;;;;;7.15;3.10;;;8.10;99.90;;;8.12;100.00;99790.41;5192797;28;20065;-77
2021/12/25 04:05:16;;;;;;;7.18;2.97;;;8.20;99.90;;;8.10;100.00;99786.91;5192315;28;20104;-78
2021/12/25 04:08:04;;;;;;;7.28;3.13;;;8.10;99.90;;;8.12;100.00;99795.59;5192719;28;20498;-78
2021/12/25 04:10:41;;;;;;;6.07;2.97;;;8.10;99.90;;;8.08;100.00;99793.72;5192627;28;20502;-78
2021/12/25 04:13:16;;;;;;;7.85;3.50;;;8.10;99.90;;;8.02;100.00;99793.56;5191775;28;20081;-76
2021/12/25 04:15:48;;;;;;;7.93;2.83;;;8.10;99.90;;;7.96;100.00;99788.22;5191766;28;20049;-78
2021/12/25 04:18:22;;;;;;;6.60;2.90;;;8.10;99.90;;;7.96;100.00;99790.81;5191092;28;20104;-78
2021/12/25 04:20:55;;;;;;;6.80;2.65;;;8.10;99.90;;;7.93;100.00;99794.19;5192466;28;20053;-78
2021/12/25 04:23:28;;;;;;;7.40;2.72;;;8.00;99.90;;;7.88;100.00;99794.03;5192257;28;20081;-78
2021/12/25 04:26:01;;;;;;;11.13;3.35;;;8.10;99.90;;;7.82;100.00;99795.56;5192733;28;20046;-78
2021/12/25 04:28:40;;;;;;;10.55;2.80;;;8.00;99.90;;;7.82;100.00;99791.28;5193335;28;20109;-76
2021/12/25 04:31:29;;;;;;;6.15;2.90;;;8.00;99.90;;;7.82;100.00;99795.56;5193269;28;20049;-78
2021/12/25 04:42:50;;;;;;;9.23;3.03;;;7.90;99.90;;;7.81;100.00;99794.69;5192542;28;20053;-78
2021/12/25 05:02:47;;;;;;;6.95;2.70;;;7.80;99.90;;;7.73;100.00;99814.34;5191067;28;20046;-78
2021/12/25 05:05:21;;;;;;;8.23;3.53;;;7.80;99.90;;;7.74;100.00;99813.50;5192607;28;20734;-78
2021/12/25 05:07:53;;;;;;;5.70;2.55;;;7.80;99.90;;;7.72;100.00;99810.00;5191842;28;20050;-78
2021/12/25 05:10:25;;;;;;;6.03;2.42;;;7.80;99.90;;;7.70;100.00;99806.47;5190942;28;20136;-78
2021/12/25 05:12:57;;;;;;;7.38;2.75;;;7.80;99.90;;;7.67;100.00;99811.56;5190805;28;20054;-78
2021/12/25 05:15:30;;;;;;;5.30;2.50;;;7.80;99.90;;;7.64;100.00;99811.47;5192292;28;20137;-78
2021/12/25 05:18:02;;;;;;;7.25;3.03;;;7.80;99.90;;;7.60;100.00;99804.41;5191861;28;20056;-77
2021/12/25 05:20:34;;;;;;;7.43;2.47;;;7.70;99.90;;;7.57;100.00;99799.16;5191862;28;20429;-78
2021/12/25 05:23:07;;;;;;;5.28;2.58;;;7.70;99.90;;;7.53;100.00;99798.16;5191537;28;20076;-77
2021/12/25 05:25:38;;;;;;;6.25;2.78;;;7.70;99.90;;;7.49;100.00;99806.66;5192062;28;20511;-77
2021/12/25 05:28:12;;;;;;;5.18;2.13;;;7.60;99.90;;;7.50;100.00;99808.47;5191835;28;20113;-76
2021/12/25 05:30:46;;;;;;;6.03;2.83;;;7.60;99.90;;;7.47;100.00;99802.28;5191671;28;20077;-78
2021/12/25 05:33:18;;;;;;;6.50;2.45;;;7.60;99.90;;;7.47;100.00;99802.28;5191337;28;20073;-78
2021/12/25 05:35:50;;;;;;;6.47;2.80;;;7.60;99.90;;;7.45;100.00;99798.78;5191360;28;20132;-77
2021/12/25 05:38:22;;;;;;;7.55;3.22;;;7.60;99.90;;;7.44;100.00;99799.59;5191133;28;20045;-78
2021/12/25 05:40:54;;;;;;;5.47;2.60;;;7.60;99.90;;;7.44;100.00;99802.19;5191587;28;20052;-78
2021/12/25 05:43:26;;;;;;;6.97;2.13;;;7.60;99.90;;;7.46;100.00;99800.53;5190574;28;20132;-77
2021/12/25 05:46:00;;;;;;;4.45;2.40;;;7.60;99.90;;;7.46;100.00;99808.31;5191100;28;20144;-77
2021/12/25 05:48:35;;;;;;;4.60;2.20;;;7.60;99.90;;;7.47;100.00;99808.34;5191034;28;20133;-77
2021/12/25 05:51:07;;;;;;;;;;;7.60;99.90;;;7.44;100.00;99802.19;5191867;28;20046;-78
2021/12/25 05:53:39;;;;;;;5.55;2.30;;;7.60;99.90;;;7.41;100.00;99807.28;5189956;28;20020;-78
2021/12/25 05:56:12;;;;;;;6.22;2.75;;;7.50;99.90;;;7.40;100.00;99808.13;5190186;28;20056;-78
2021/12/25 05:58:44;;;;;;;7.20;2.65;;;7.50;99.90;;;7.39;100.00;99807.22;5190122;28;20326;-77
2021/12/25 06:01:17;;;;;;;5.15;2.22;;;7.50;99.90;;;7.40;100.00;99815.88;5190288;28;20570;-77
2021/12/25 06:06:24;;;;;;;7.60;2.90;;;7.50;99.90;;;7.33;100.00;99814.81;5243364;28;20056;-69
2021/12/25 06:08:58;;;;;;;6.63;2.90;;;7.50;99.90;;;7.32;100.00;99824.31;5247371;28;20052;-69
2021/12/25 06:11:31;;;;;;;6.22;2.92;;;7.50;99.90;;;7.29;100.00;99819.00;5247027;28;20052;-68
2021/12/25 06:14:09;;;;;;;6.35;2.72;;;7.50;99.90;;;7.29;100.00;99819.00;5247230;28;20404;-68
2021/12/25 06:16:43;;;;;;;7.28;3.30;;;7.40;99.90;;;7.26;100.00;99825.81;5246507;28;20135;-68
2021/12/25 06:19:15;;;;;;;6.43;2.75;;;7.40;99.90;;;7.13;100.00;99829.72;5246135;28;20044;-67
2021/12/25 06:21:47;;;;;;;8.20;3.10;;;7.40;99.90;;;7.00;100.00;99835.31;5246020;28;20048;-67
2021/12/25 06:24:20;;;;;;;6.30;2.53;;;7.30;99.90;;;6.88;100.00;99833.19;5245959;28;20056;-66
2021/12/25 06:26:52;;;;;;;7.75;2.90;;;7.30;99.90;;;6.85;100.00;99838.28;5246015;28;20229;-68
2021/12/25 06:29:24;;;;;;;6.32;3.08;;;7.20;99.90;;;6.86;100.00;99840.03;5245959;28;20044;-68
2021/12/25 06:31:58;;;;;;;4.93;2.38;;;7.20;99.90;;;6.91;100.00;99845.34;5245676;28;20045;-68
2021/12/25 06:34:30;;;;;;;7.15;2.55;;;7.20;99.90;;;6.92;100.00;99850.63;5246180;28;20052;-69
2021/12/25 06:37:02;;;;;;;9.02;3.00;;;7.20;99.90;;;6.93;100.00;99852.38;5245460;28;20052;-65
2021/12/25 06:39:34;;;;;;;6.05;2.97;;;7.20;99.90;;;6.93;100.00;99852.38;5245876;28;20044;-67
2021/12/25 06:42:09;;;;;;;7.40;3.00;;;7.20;99.90;;;6.97;100.00;99855.94;5247407;28;20049;-67
2021/12/25 06:44:41;;;;;;;8.43;2.92;;;7.20;99.90;;;6.97;100.00;99863.69;5249708;28;20054;-67
2021/12/25 06:47:14;;;;;;;7.50;3.25;;;7.20;99.90;;;6.95;100.00;99861.06;5249619;28;20504;-67
2021/12/25 06:49:46;;;;;;;8.48;3.53;;;7.20;99.90;;;6.97;100.00;99864.59;5249501;28;20044;-69
2021/12/25 06:52:18;;;;;;;8.18;3.20;;;7.20;99.90;;;6.97;100.00;99871.47;5249958;28;20056;-69
2021/12/25 06:54:50;;;;;;;6.43;3.03;;;7.20;99.90;;;6.95;100.00;99867.97;5249401;28;20071;-69
2021/12/25 06:57:22;;;;;;;8.27;3.13;;;7.20;99.90;;;6.91;100.00;99871.25;5249498;28;20044;-69
2021/12/25 06:59:54;;;;;;;8.10;3.58;;;7.10;99.90;;;6.91;100.00;99871.25;5249545;28;20048;-71
2021/12/25 07:02:27;;;;;;;9.52;3.10;;;7.10;99.90;;;6.93;100.00;99878.28;5249565;28;20045;-71
2021/12/25 07:05:00;;;;;;;7.57;3.15;;;7.10;99.90;;;6.93;100.00;99877.41;5248911;28;20048;-71
2021/12/25 07:07:32;;;;;;;7.38;2.83;;;7.10;99.90;;;6.91;100.00;99887.72;5249402;28;20405;-70
2021/12/25 07:10:05;;;;;;;7.10;2.97;;;7.10;99.90;;;6.95;100.00;99880.91;5249261;28;20052;-71
2021/12/25 07:12:39;;;;;;;7.10;2.80;;;7.20;99.90;;;6.98;100.00;99891.41;5249614;28;20485;-71
2021/12/25 07:15:11;;;;;;;8.00;2.75;;;7.20;99.90;;;6.96;100.00;99887.84;5249259;28;20048;-71
2021/12/25 07:17:44;;;;;;;5.43;2.63;;;7.10;99.90;;;6.84;100.00;99896.06;5248972;28;20128;-71
2021/12/25 07:20:16;;;;;;;5.75;2.65;;;7.10;99.90;;;6.83;100.00;99891.72;5248983;28;20055;-69
2021/12/25 07:22:48;;;;;;;4.95;2.15;;;7.10;99.90;;;6.76;100.00;99905.28;5249169;28;20059;-68
2021/12/25 07:25:20;;;;;;;6.20;2.70;;;7.00;99.90;;;6.70;100.00;99910.25;5248797;28;20059;-71
2021/12/25 07:27:52;;;;;;;6.03;2.20;;;7.00;99.90;;;6.69;100.00;99909.38;5249128;28;20280;-71
2021/12/25 07:30:25;;;;;;;4.35;2.00;;;7.00;99.90;;;6.64;100.00;99913.50;5249570;28;20067;-71
2021/12/25 07:32:58;;;;;;;4.68;2.30;;;6.90;99.90;;;6.52;100.00;99924.31;5248947;28;20139;-68
2021/12/25 07:35:31;;;;;;;4.88;2.30;;;6.90;99.90;;;6.42;100.00;99931.66;5248714;28;20511;-71
2021/12/25 07:38:03;;;;;;;3.83;1.67;;;6.90;99.90;;;6.33;100.00;99927.03;5248934;28;20045;-71
2021/12/25 07:40:35;;;;;;;4.20;1.90;;;6.80;99.90;;;6.27;100.00;99925.91;5248730;28;20048;-71
2021/12/25 07:43:08;;;;;;;2.58;1.52;;;6.70;99.90;;;6.23;100.00;99925.78;5248703;28;20040;-72
2021/12/25 07:45:40;;;;;;;3.10;1.73;;;6.70;99.90;;;6.16;100.00;99928.97;5248618;28;20048;-68
2021/12/25 07:48:14;;;;;;;2.58;1.35;;;6.70;99.90;;;6.13;100.00;99933.13;5248497;28;20145;-71
2021/12/25 07:50:46;;;;;;;3.22;1.17;;;6.60;99.90;;;6.13;100.00;99941.78;5249070;28;20206;-71
2021/12/25 07:53:18;;;;;;;2.53;1.23;;;6.60;99.90;;;6.10;100.00;99944.25;5247335;28;20059;-69
2021/12/25 07:55:50;;;;;;;2.05;1.20;;;6.50;99.90;;;6.03;100.00;99947.41;5248518;28;20048;-71
2021/12/25 07:58:22;;;;;;;1.77;1.15;;;6.50;99.90;;;5.98;100.00;99955.00;5248391;28;20041;-69
2021/12/25 08:00:55;;;;;;;1.35;1.10;;;6.40;99.90;;;5.95;100.00;99959.19;5248512;28;20499;-69
2021/12/25 08:03:28;;;;;;;1.90;1.30;;;6.40;99.90;;;5.88;99.11;99957.13;5248053;28;20055;-71
2021/12/25 08:06:00;;;;;;;1.90;0.95;;;6.40;99.90;;;5.87;99.62;99960.56;5248101;28;20054;-71
2021/12/25 08:08:32;;;;;;;2.47;1.10;;;6.30;99.90;;;5.83;99.10;99966.41;5248260;28;20055;-72
2021/12/25 08:11:04;;;;;;;2.22;1.38;;;6.30;99.90;;;5.75;98.99;99972.97;5248261;28;20473;-71
2021/12/25 08:13:36;;;;;;;2.10;1.45;;;6.20;99.90;;;5.67;98.55;99973.56;5248083;28;20070;-71
2021/12/25 08:16:08;;;;;;;1.13;0.85;;;6.20;99.90;;;5.59;97.86;99974.91;5247913;28;20054;-71
2021/12/25 08:18:41;;;;;;;1.38;0.90;;;6.10;99.90;;;5.55;98.64;99973.03;5247733;28;20040;-71
2021/12/25 08:21:14;;;;;;;2.38;1.20;;;6.10;99.90;;;5.53;98.50;99974.66;5247804;28;20052;-69
2021/12/25 08:23:47;;;;;;;1.77;1.33;;;6.00;99.90;;;5.44;98.42;99984.63;5247867;28;20106;-71
2021/12/25 08:26:19;;;;;;;2.17;1.23;;;6.00;99.90;;;5.40;99.17;99985.31;5247993;28;20458;-71
2021/12/25 08:28:51;;;;;;;2.45;1.42;;;5.90;99.90;;;5.40;99.55;99990.47;5248153;28;20378;-71
2021/12/25 08:31:23;;;;;;;2.45;1.15;;;5.90;99.90;;;5.33;99.00;99981.56;5247672;28;20049;-71
2021/12/25 08:33:56;;;;;;;1.38;0.80;;;5.80;99.90;;;5.28;99.36;99989.94;5247563;28;20504;-71
2021/12/25 08:36:28;;;;;;;2.40;1.10;;;5.80;99.90;;;5.23;99.67;99994.94;5247553;28;20052;-68
2021/12/25 08:39:00;;;;;;;2.08;1.20;;;5.80;99.90;;;5.13;98.72;100000.50;5247298;28;20044;-71
2021/12/25 08:41:32;;;;;;;2.85;1.13;;;5.70;99.90;;;5.04;99.78;100005.28;5247485;28;20497;-71
2021/12/25 08:44:18;;;;;;;1.92;1.15;;;5.60;99.90;;;5.00;100.00;99998.19;5247362;28;20660;-71
2021/12/25 08:46:56;;;;;;;2.08;1.40;;;5.50;99.90;;;5.01;100.00;100010.28;5247867;28;20496;-71
2021/12/25 08:49:30;;;;;;;1.27;0.88;;;5.50;99.90;;;4.97;100.00;100008.41;5247153;28;20052;-71
2021/12/25 08:52:08;;;;;;;2.20;1.17;;;5.50;99.90;;;4.96;100.00;100012.69;5247833;28;20474;-71
2021/12/25 08:54:41;;;;;;;1.33;1.15;;;5.50;99.90;;;4.90;99.89;100017.59;5246867;28;20052;-71
2021/12/25 08:57:13;;;;;;;1.02;0.90;;;5.40;99.90;;;4.86;99.74;100018.25;5247253;28;20052;-70
2021/12/25 08:59:45;;;;;;;2.20;1.27;;;5.40;99.90;;;4.90;100.00;100017.59;5246552;28;20173;-71
2021/12/25 09:02:20;;;;;;;1.20;0.93;;;5.40;99.90;;;4.86;99.84;100026.88;5246582;28;20059;-69
2021/12/25 09:04:53;;;;;;;1.52;1.00;;;5.40;99.90;;;4.93;100.00;100028.03;5246147;28;20052;-68
2021/12/25 09:07:25;;;;;;;2.78;1.20;;;5.40;99.90;;;5.03;100.00;100027.66;5247352;28;20044;-68
2021/12/25 09:09:57;;;;;;;2.25;1.25;;;5.50;99.90;;;5.07;99.88;100031.22;5246497;28;20049;-69
2021/12/25 09:12:32;;;;;;;1.52;1.35;;;5.50;99.90;;;4.99;98.87;100038.66;5246195;28;20048;-69
2021/12/25 09:15:04;;;;;;;1.52;1.20;;;5.60;99.90;;;4.91;98.38;100050.34;5246040;28;20057;-69
2021/12/25 09:17:36;;;;;;;3.55;1.13;;;5.50;99.90;;;4.90;99.37;100046.00;5246416;28;20409;-69
2021/12/25 09:20:11;;;;;;;1.00;0.88;;;5.50;99.90;;;4.89;98.61;100051.97;5246440;28;20052;-69
2021/12/25 09:22:44;;;;;;;2.20;1.02;;;5.40;99.90;;;4.86;98.84;100055.28;5245876;28;20056;-69
2021/12/25 09:25:16;;;;;;;2.70;1.20;;;5.40;99.90;;;4.89;99.51;100049.41;5246461;28;20048;-69
2021/12/25 09:27:49;;;;;;;2.85;1.48;;;5.40;99.90;;;4.85;98.69;100052.63;5246689;28;20066;-70
2021/12/25 09:30:22;;;;;;;2.63;1.15;;;5.40;99.90;;;4.79;98.04;100052.34;5246821;28;20235;-70
2021/12/25 09:32:54;;;;;;;2.30;1.33;;;5.30;99.90;;;4.81;98.90;100058.47;5246195;28;20489;-69
2021/12/25 09:35:28;;;;;;;1.67;1.08;;;5.30;99.90;;;4.81;98.30;100076.53;5245690;28;20044;-69
2021/12/25 09:38:00;;;;;;;3.13;1.30;;;5.30;99.90;;;4.72;98.34;100063.22;5246183;28;20636;-69
2021/12/25 09:40:32;;;;;;;1.95;1.13;;;5.30;99.90;;;4.61;97.58;100061.00;5246121;28;20054;-70
2021/12/25 09:43:04;;;;;;;1.77;1.33;;;5.20;99.90;;;4.60;97.43;100064.41;5246271;28;20063;-70
2021/12/25 09:45:36;;;;;;;1.63;1.23;;;5.20;99.90;;;4.56;97.55;100070.25;5245619;28;20503;-69
2021/12/25 09:48:08;;;;;;;2.78;1.30;;;5.20;99.90;;;4.51;97.23;100079.47;5245725;28;20044;-70
2021/12/25 09:50:41;;;;;;;1.13;1.08;;;5.10;99.90;;;4.48;97.56;100071.56;5246311;28;20060;-70
2021/12/25 09:53:16;;;;;;;2.00;0.90;;;5.00;99.90;;;4.46;97.61;100067.16;5246594;28;20045;-70
2021/12/25 09:55:48;;;;;;;1.20;1.00;;;5.00;99.90;;;4.42;97.13;100071.28;5246008;28;20044;-70
2021/12/25 09:58:20;;;;;;;1.35;1.00;;;5.00;99.90;;;4.43;98.11;100067.88;5245826;28;20513;-70
2021/12/25 10:00:53;;;;;;;2.72;1.17;;;5.00;99.90;;;4.43;97.16;100078.19;5246227;28;20408;-70
2021/12/25 10:03:41;;;;;;;1.45;1.20;;;5.00;99.90;;;4.40;97.48;100079.78;5245882;28;20048;-70
2021/12/25 10:06:30;;;;;;;1.65;0.93;;;5.00;99.90;;;4.44;97.74;100085.16;5245386;28;20051;-70
2021/12/25 10:09:14;;;;;;;2.15;0.95;;;5.00;99.90;;;4.42;96.63;100091.03;5245661;28;20048;-70
2021/12/25 10:12:00;;;;;;;2.40;1.20;;;4.90;99.90;;;4.44;97.06;100097.19;5245814;28;20485;-70
2021/12/25 10:14:32;;;;;;;1.45;1.02;;;4.90;99.90;;;4.54;97.77;100089.03;5245482;28;20090;-70
2021/12/25 10:17:15;;;;;;;1.40;1.05;;;5.00;99.90;;;4.51;96.28;100087.22;5247090;28;20048;-70
2021/12/25 10:20:08;;;;;;;1.25;1.02;;;5.00;99.90;;;4.55;96.81;100094.28;5241247;28;20053;-70
2021/12/25 10:23:07;;;;;;;2.92;1.17;;;5.00;99.90;;;4.48;96.06;100099.06;5208202;28;20057;-70
2021/12/25 10:25:45;;;;;;;1.92;1.08;;;5.00;99.90;;;4.45;95.23;100089.50;5245855;28;20049;-70
2021/12/25 10:28:21;;;;;;;1.95;1.08;;;5.00;99.90;;;4.48;95.51;100094.78;5249780;28;20055;-70
2021/12/25 10:30:58;;;;;;;1.35;0.90;;;5.00;99.90;;;4.50;95.54;100100.03;5249964;28;20059;-70
2021/12/25 10:33:36;;;;;;;1.63;1.20;;;5.00;99.90;;;4.53;95.71;100098.47;5249486;28;20056;-70
2021/12/25 10:36:11;;;;;;;2.05;1.17;;;5.00;99.90;;;4.47;94.90;100095.63;5249119;28;20465;-70
2021/12/25 10:38:57;;;;;;;;;;;5.00;99.90;;;4.51;95.67;100102.69;5249970;28;20044;-69
2021/12/25 10:41:30;;;;;;;2.20;1.17;;;5.00;99.90;;;4.58;95.10;100094.44;5249998;28;20283;-70
2021/12/25 10:44:15;;;;;;;0.95;0.85;;;5.00;99.90;;;4.61;94.28;100089.41;5249073;28;20493;-70
2021/12/25 10:46:52;;;;;;;1.00;0.90;;;5.00;99.90;;;4.63;94.86;100092.97;5249660;28;20048;-70
2021/12/25 10:49:26;;;;;;;1.30;1.13;;;5.10;99.90;;;4.63;94.92;100085.22;5249708;28;20075;-70
2021/12/25 10:52:12;;;;;;;1.92;1.25;;;5.10;99.90;;;4.63;94.28;100089.50;5249406;28;20056;-70
2021/12/25 10:54:50;;;;;;;1.73;1.08;;;5.10;99.90;;;4.66;95.07;100087.03;5248589;28;20135;-70
2021/12/25 10:57:38;;;;;;;1.52;1.05;;;5.10;99.90;;;4.60;94.28;100087.63;5249508;28;20055;-70
2021/12/25 11:00:14;;;;;;;1.52;0.90;;;5.10;99.90;;;4.59;94.32;100083.28;5249351;28;20045;-74
2021/12/25 11:02:49;;;;;;;1.60;1.20;;;5.10;99.90;;;4.58;94.01;100086.69;5249861;28;20052;-78
2021/12/25 11:05:24;;;;;;;1.67;1.10;;;5.10;99.90;;;4.66;94.27;100081.00;5249377;28;20048;-70
2021/12/25 11:08:07;;;;;;;2.72;1.20;;;5.10;99.90;;;4.70;93.95;100077.75;5249628;28;20052;-70
2021/12/25 11:10:46;;;;;;;2.17;1.20;;;5.10;99.90;;;4.65;93.33;100082.69;5249174;28;20070;-70
2021/12/25 11:13:21;;;;;;;1.48;1.00;;;5.10;99.90;;;4.69;93.45;100075.97;5249057;28;20059;-69
2021/12/25 11:16:03;;;;;;;2.30;1.35;;;5.10;99.90;;;4.70;93.27;100075.19;5248642;28;20484;-70
2021/12/25 11:19:00;;;;;;;2.15;1.20;;;5.10;99.90;;;4.63;91.77;100081.75;5249352;28;20094;-70
2021/12/25 11:21:36;;;;;;;2.03;1.30;;;5.10;99.90;;;4.63;92.13;100084.34;5249316;28;20562;-70
2021/12/25 11:24:15;;;;;;;2.03;1.10;;;5.10;99.90;;;4.52;90.30;100094.16;5248359;28;20495;-70
2021/12/25 11:26:52;;;;;;;1.00;0.80;;;5.10;99.90;;;4.49;90.24;100091.41;5248804;28;20139;-70
2021/12/25 11:29:27;;;;;;;0.70;0.70;;;5.00;99.90;;;4.52;90.62;100094.16;5248722;28;20382;-70
2021/12/25 11:32:01;;;;;;;1.13;1.00;;;5.00;99.90;;;4.48;89.25;100089.63;5248724;28;20045;-70
2021/12/25 11:34:33;;;;;;;1.52;0.88;;;5.00;99.90;;;4.46;88.39;100103.28;5248174;28;20048;-70
2021/12/25 11:37:06;;;;;;;1.08;0.98;;;5.00;99.90;;;4.38;87.87;100113.25;5249120;28;20499;-70
2021/12/25 11:39:39;;;;;;;0.73;0.70;;;4.90;99.90;;;4.30;87.89;100120.63;5249119;28;20040;-70
2021/12/25 11:42:13;;;;;;;1.85;1.13;;;4.90;99.90;;;4.27;87.96;100122.16;5248686;28;20131;-70
2021/12/25 11:44:50;;;;;;;1.17;1.05;;;4.80;99.90;;;4.30;89.00;100119.69;5247768;28;20053;-70
2021/12/25 11:47:37;;;;;;;1.38;1.00;;;4.80;99.90;;;4.34;88.31;100127.69;5248620;28;20044;-70